Flight Track Log - Related Links

Times and Time Zones

All times are in EDT time to prevent confusion due to time zone crossing. See the AAL2137 flight status page for this flight to view local times or setup timezone preferences in your user account.

Time Position Orientation Groundspeed Altitude Reporting Facility
EDT Latitude Longitude Course Direction KTS MPH feet Rate Location/Type
Mon 06:19:23 PM 32.8570 -97.0510 180° South 171 197 2,700  Level FlightAware ADS-B
Mon 06:19:48 PM 32.8340 -97.0520 182° South 193 222 3,300 1,636 Climbing FlightAware ADS-B
Mon 06:20:18 PM 32.8040 -97.0520 180° South 215 247 4,200 1,950 Climbing FlightAware ADS-B
Mon 06:20:28 PM 32.7960 -97.0530 186° South 213 245 4,600 2,400 Climbing FlightAware ADS-B
Mon 06:20:58 PM 32.7640 -97.0530 180° South 223 257 5,800 2,000 Climbing FlightAware ADS-B
Mon 06:21:28 PM 32.7310 -97.0530 180° South 247 284 6,600 1,745 Climbing FlightAware ADS-B
Mon 06:21:53 PM 32.7030 -97.0540 182° South 251 289 7,400 1,855 Climbing FlightAware ADS-B
Mon 06:22:23 PM 32.6670 -97.0550 181° South 267 307 8,300 2,100 Climbing FlightAware ADS-B
Mon 06:22:53 PM 32.6280 -97.0550 180° South 271 312 9,500 2,143 Climbing FlightAware ADS-B
Mon 06:23:33 PM 32.5810 -97.0360 161° South 300 345 10,800 1,500 Climbing FlightAware ADS-B
Mon 06:24:13 PM 32.5290 -96.9970 148° Southeast 340 391 11,500 1,906 Climbing FlightAware ADS-B
Mon 06:24:58 PM 32.4670 -96.9510 148° Southeast 350 403 13,500 2,400 Climbing FlightAware ADS-B
Mon 06:25:38 PM 32.4100 -96.9090 148° Southeast 367 422 14,900 2,175 Climbing FlightAware ADS-B
Mon 06:26:18 PM 32.3540 -96.8670 148° Southeast 382 440 16,400 2,400 Climbing FlightAware ADS-B
Mon 06:27:03 PM 32.2830 -96.8170 149° Southeast 388 447 18,300 2,471 Climbing FlightAware ADS-B
Mon 06:27:43 PM 32.2160 -96.7890 161° South 391 450 19,900 2,289 Climbing FlightAware ADS-B
Mon 06:28:19 PM 32.1493 -96.7639 162° South 400 460 21,200 2,108 Climbing FlightAware ADS-B
Mon 06:28:57 PM 32.0805 -96.7378 162° South 407 468 22,500 2,083 Climbing FlightAware ADS-B
Mon 06:29:31 PM 32.0198 -96.7146 162° South 409 471 23,700 2,000 Climbing FlightAware ADS-B
Mon 06:30:06 PM 31.9550 -96.6901 162° South 416 479 24,800 1,818 Climbing FlightAware ADS-B
Mon 06:30:37 PM 31.8991 -96.6689 162° South 420 483 25,700 1,727 Climbing FlightAware ADS-B
Mon 06:31:12 PM 31.8335 -96.6430 161° South 427 491 26,700 1,545 Climbing FlightAware ADS-B
Mon 06:31:43 PM 31.7757 -96.6189 160° South 431 496 27,400 1,371 Climbing FlightAware ADS-B
Mon 06:31:47 PM 31.7674 -96.6154 160° South 435 501 27,500 1,371 Climbing FlightAware ADS-B
Mon 06:32:18 PM 31.7086 -96.5912 161° South 440 506 28,200 1,313 Climbing FlightAware ADS-B
Mon 06:32:19 PM 31.7065 -96.5903 160° South 440 506 28,200 1,429 Level FlightAware ADS-B
Mon 06:32:39 PM 31.6673 -96.5741 161° South 443 510 28,700 1,250 Climbing FlightAware ADS-B
Mon 06:32:43 PM 31.6600 -96.5707 158° South 445 512 28,700 1,043 Level FlightAware ADS-B
Mon 06:33:02 PM 31.6250 -96.5509 154° Southeast 453 521 29,100 1,500 Climbing FlightAware ADS-B
Mon 06:33:03 PM 31.6233 -96.5498 151° Southeast 453 521 29,200 1,600 Climbing FlightAware ADS-B
Mon 06:33:32 PM 31.5711 -96.5114 148° Southeast 458 527 29,900 1,400 Climbing FlightAware ADS-B
Mon 06:33:33 PM 31.5684 -96.5094 148° Southeast 458 527 29,900 1,548 Level FlightAware ADS-B
Mon 06:34:03 PM 31.5143 -96.4693 148° Southeast 456 525 30,700 1,377 Climbing FlightAware ADS-B
Mon 06:34:34 PM 31.4589 -96.4292 148° Southeast 458 527 31,300 1,125 Climbing FlightAware ADS-B
Mon 06:34:35 PM 31.4570 -96.4278 148° Southeast 458 527 31,300 1,161 Level FlightAware ADS-B
Mon 06:35:05 PM 31.4028 -96.3886 148° Southeast 463 533 31,900 1,161 Climbing FlightAware ADS-B
Mon 06:35:06 PM 31.4008 -96.3871 147° Southeast 463 533 31,900 1,161 Level FlightAware ADS-B
Mon 06:35:36 PM 31.3473 -96.3483 148° Southeast 464 534 32,500 1,355 Climbing FlightAware ADS-B
Mon 06:35:37 PM 31.3453 -96.3468 147° Southeast 464 534 32,600 1,400 Climbing FlightAware ADS-B
Mon 06:36:06 PM 31.2927 -96.3086 148° Southeast 464 534 33,200 1,200 Climbing FlightAware ADS-B
Mon 06:36:07 PM 31.2894 -96.3062 148° Southeast 464 534 33,200 1,200 Level FlightAware ADS-B
Mon 06:36:36 PM 31.2376 -96.2687 148° Southeast 464 534 33,800 1,161 Climbing FlightAware ADS-B
Mon 06:36:38 PM 31.2331 -96.2654 148° Southeast 464 534 33,800 1,200 Level FlightAware ADS-B
Mon 06:37:06 PM 31.1824 -96.2287 148° Southeast 463 533 34,400 1,355 Climbing FlightAware ADS-B
Mon 06:37:09 PM 31.1779 -96.2254 148° Southeast 462 532 34,500 1,400 Climbing FlightAware ADS-B
Mon 06:37:36 PM 31.1281 -96.1894 148° Southeast 459 528 35,100 1,355 Climbing FlightAware ADS-B
Mon 06:37:40 PM 31.1217 -96.1849 149° Southeast 459 528 35,200 1,200 Climbing FlightAware ADS-B
Mon 06:38:06 PM 31.0738 -96.1504 148° Southeast 456 525 35,700 1,161 Climbing FlightAware ADS-B
Mon 06:38:11 PM 31.0655 -96.1445 149° Southeast 456 525 35,800 968 Climbing FlightAware ADS-B
Mon 06:38:37 PM 31.0190 -96.1110 148° Southeast 456 525 36,200 968 Climbing FlightAware ADS-B
Mon 06:38:42 PM 31.0089 -96.1038 149° Southeast 456 525 36,300 800 Climbing FlightAware ADS-B
Mon 06:39:07 PM 30.9645 -96.0719 148° Southeast 457 526 36,600 800 Climbing FlightAware ADS-B
Mon 06:39:12 PM 30.9548 -96.0649 148° Southeast 458 527 36,700 800 Climbing FlightAware ADS-B
Mon 06:39:37 PM 30.9104 -96.0330 148° Southeast 456 525 37,000 545 Climbing FlightAware ADS-B
Mon 06:39:45 PM 30.8955 -96.0223 148° Southeast 455 524 37,000  Level FlightAware ADS-B
Mon 06:40:07 PM 30.8562 -95.9941 148° Southeast 454 522 37,000  Level FlightAware ADS-B
Mon 06:40:17 PM 30.8394 -95.9821 148° Southeast 453 521 37,000  Level FlightAware ADS-B
Mon 06:40:38 PM 30.8022 -95.9555 148° Southeast 453 521 37,000  Level FlightAware ADS-B
Mon 06:40:47 PM 30.7856 -95.9436 148° Southeast 453 521 37,000  Level FlightAware ADS-B
Mon 06:41:08 PM 30.7483 -95.9170 148° Southeast 453 521 37,000  Level FlightAware ADS-B
Mon 06:41:18 PM 30.7292 -95.9033 148° Southeast 453 521 37,000  Level FlightAware ADS-B
Mon 06:41:38 PM 30.6941 -95.8783 149° Southeast 453 521 37,000  Level FlightAware ADS-B
Mon 06:41:49 PM 30.6751 -95.8648 149° Southeast 453 521 37,000  Level FlightAware ADS-B
Mon 06:42:08 PM 30.6397 -95.8395 148° Southeast 453 521 37,000  Level FlightAware ADS-B
Mon 06:42:20 PM 30.6199 -95.8253 148° Southeast 454 522 37,000  Level FlightAware ADS-B
Mon 06:42:39 PM 30.5848 -95.8003 148° Southeast 454 522 37,000  Level FlightAware ADS-B
Mon 06:42:51 PM 30.5645 -95.7857 148° Southeast 454 522 37,000  Level FlightAware ADS-B
Mon 06:43:10 PM 30.5298 -95.7609 148° Southeast 454 522 37,000  Level FlightAware ADS-B
Mon 06:43:21 PM 30.5107 -95.7472 148° Southeast 453 521 37,000  Level FlightAware ADS-B
Mon 06:43:40 PM 30.4762 -95.7227 149° Southeast 453 521 37,000  Level FlightAware ADS-B
Mon 06:43:51 PM 30.4564 -95.7087 149° Southeast 454 522 37,000  Level FlightAware ADS-B
Mon 06:44:10 PM 30.4218 -95.6843 149° Southeast 454 522 37,000  Level FlightAware ADS-B
Mon 06:44:22 PM 30.4003 -95.6692 149° Southeast 454 522 37,000  Level FlightAware ADS-B
Mon 06:44:43 PM 30.3631 -95.6431 149° Southeast 455 524 37,000  Level FlightAware ADS-B
Mon 06:44:53 PM 30.3453 -95.6305 149° Southeast 455 524 37,000  Level FlightAware ADS-B
Mon 06:45:14 PM 30.3078 -95.6040 149° Southeast 455 524 37,000  Level FlightAware ADS-B
Mon 06:45:26 PM 30.2864 -95.5889 149° Southeast 456 525 37,000  Level FlightAware ADS-B
Mon 06:45:44 PM 30.2531 -95.5653 149° Southeast 457 526 37,000  Level FlightAware ADS-B
Mon 06:45:56 PM 30.2315 -95.5500 149° Southeast 457 526 37,000  Level FlightAware ADS-B
Mon 06:46:14 PM 30.1987 -95.5267 148° Southeast 457 526 37,000  Level FlightAware ADS-B
Mon 06:46:28 PM 30.1734 -95.5089 149° Southeast 457 526 37,000  Level FlightAware ADS-B
Mon 06:46:44 PM 30.1443 -95.4883 149° Southeast 457 526 37,000  Level FlightAware ADS-B
Mon 06:47:02 PM 30.1132 -95.4664 149° Southeast 458 527 37,000  Level FlightAware ADS-B
Mon 06:47:14 PM 30.0900 -95.4501 149° Southeast 458 527 37,000  Level FlightAware ADS-B
Mon 06:47:32 PM 30.0583 -95.4279 149° Southeast 458 527 37,000  Level FlightAware ADS-B
Mon 06:47:44 PM 30.0355 -95.4119 149° Southeast 457 526 37,000  Level FlightAware ADS-B
Mon 06:48:02 PM 30.0033 -95.3892 149° Southeast 457 526 37,000  Level FlightAware ADS-B
Mon 06:48:15 PM 29.9813 -95.3737 149° Southeast 457 526 37,000  Level FlightAware ADS-B
Mon 06:48:33 PM 29.9480 -95.3504 149° Southeast 457 526 37,000  Level FlightAware ADS-B
Mon 06:48:45 PM 29.9268 -95.3355 149° Southeast 457 526 37,000  Level FlightAware ADS-B
Mon 06:49:03 PM 29.8930 -95.3118 149° Southeast 456 525 37,000  Level FlightAware ADS-B
Mon 06:49:15 PM 29.8717 -95.2970 149° Southeast 456 525 37,000  Level FlightAware ADS-B
Mon 06:49:34 PM 29.8384 -95.2735 149° Southeast 457 526 37,000  Level FlightAware ADS-B
Mon 06:49:45 PM 29.8175 -95.2589 149° Southeast 456 525 37,000  Level FlightAware ADS-B
Mon 06:50:04 PM 29.7834 -95.2350 149° Southeast 457 526 37,000  Level FlightAware ADS-B
Mon 06:50:16 PM 29.7628 -95.2206 149° Southeast 457 526 37,000  Level FlightAware ADS-B
Mon 06:50:34 PM 29.7290 -95.1970 149° Southeast 458 527 37,000  Level FlightAware ADS-B
Mon 06:50:47 PM 29.7065 -95.1813 149° Southeast 458 527 37,000  Level FlightAware ADS-B
Mon 06:51:04 PM 29.6744 -95.1589 149° Southeast 458 527 37,000  Level FlightAware ADS-B
Mon 06:51:17 PM 29.6516 -95.1431 149° Southeast 459 528 37,000  Level FlightAware ADS-B
Mon 06:51:35 PM 29.6196 -95.1208 149° Southeast 459 528 37,000  Level FlightAware ADS-B
Mon 06:51:48 PM 29.5952 -95.1039 149° Southeast 459 528 37,000  Level FlightAware ADS-B
Mon 06:52:05 PM 29.5643 -95.0826 149° Southeast 459 528 37,000  Level FlightAware ADS-B
Mon 06:52:18 PM 29.5400 -95.0656 149° Southeast 459 528 37,000  Level FlightAware ADS-B
Mon 06:52:35 PM 29.5091 -95.0442 149° Southeast 459 528 37,000  Level FlightAware ADS-B
Mon 06:52:49 PM 29.4854 -95.0278 149° Southeast 458 527 37,000  Level FlightAware ADS-B
Mon 06:53:05 PM 29.4546 -95.0064 149° Southeast 457 526 37,000  Level FlightAware ADS-B
Mon 06:53:19 PM 29.4309 -94.9900 149° Southeast 457 526 37,000  Level FlightAware ADS-B
Mon 06:53:36 PM 29.4003 -94.9688 149° Southeast 457 526 37,000  Level FlightAware ADS-B
Mon 06:53:49 PM 29.3763 -94.9522 149° Southeast 456 525 37,000  Level FlightAware ADS-B
Mon 06:54:06 PM 29.3456 -94.9309 149° Southeast 456 525 37,000  Level FlightAware ADS-B
Mon 06:54:21 PM 29.3178 -94.9116 149° Southeast 456 525 37,000  Level FlightAware ADS-B
Mon 06:54:36 PM 29.2914 -94.8934 149° Southeast 456 525 37,000  Level FlightAware ADS-B
Mon 06:54:54 PM 29.2582 -94.8706 149° Southeast 455 524 37,000  Level FlightAware ADS-B
Mon 06:55:06 PM 29.2362 -94.8554 149° Southeast 454 522 37,000  Level FlightAware ADS-B
Mon 06:55:25 PM 29.2029 -94.8325 149° Southeast 454 522 37,000  Level FlightAware ADS-B
Mon 06:55:37 PM 29.1807 -94.8171 149° Southeast 455 524 37,000  Level FlightAware ADS-B
Mon 06:56:10 PM 29.1223 -94.7767 149° Southeast 454 522 37,000  Level FlightAware ADS-B
Mon 06:56:16 PM 29.1102 -94.7684 149° Southeast 454 522 37,000  Level FlightAware ADS-B
Mon 06:56:40 PM 29.0683 -94.7397 149° Southeast 453 521 37,000  Level FlightAware ADS-B
Mon 06:56:48 PM 29.0541 -94.7300 149° Southeast 453 521 37,000  Level FlightAware ADS-B
Mon 06:57:11 PM 29.0123 -94.7014 149° Southeast 452 520 37,000  Level FlightAware ADS-B
Mon 06:57:41 PM 28.9586 -94.6644 149° Southeast 450 518 37,000  Level FlightAware ADS-B
Mon 06:58:01 PM 28.9225 -94.6397 149° Southeast 450 518 37,000  Level FlightAware ADS-B
Mon 06:58:12 PM 28.9038 -94.6270 149° Southeast 449 517 37,000  Level FlightAware ADS-B
Mon 06:58:42 PM 28.8497 -94.5900 149° Southeast 448 516 37,000  Level FlightAware ADS-B
Mon 06:59:13 PM 28.7950 -94.5526 149° Southeast 447 514 37,000  Level FlightAware ADS-B
Mon 06:59:43 PM 28.7419 -94.5166 149° Southeast 446 513 37,000  Level FlightAware ADS-B
Mon 07:00:13 PM 28.6880 -94.4799 149° Southeast 445 512 37,000  Level FlightAware ADS-B
Mon 07:00:47 PM 28.6284 -94.4393 149° Southeast 445 512 37,000  Level FlightAware ADS-B
Mon 07:01:20 PM 28.5692 -94.3988 149° Southeast 446 513 37,000  Level FlightAware ADS-B
Mon 07:01:58 PM 28.5028 -94.3538 149° Southeast 447 514 37,000  Level FlightAware ADS-B
Mon 07:02:28 PM 28.4493 -94.3175 149° Southeast 448 516 37,000  Level FlightAware ADS-B
Mon 07:02:58 PM 28.3953 -94.2810 149° Southeast 450 518 37,000  Level FlightAware ADS-B
Mon 07:03:28 PM 28.3410 -94.2442 149° Southeast 452 520 37,000  Level FlightAware ADS-B
Mon 07:03:58 PM 28.2870 -94.2079 149° Southeast 453 521 37,000  Level FlightAware ADS-B
Mon 07:04:38 PM 28.2157 -94.1598 149° Southeast 456 525 37,000  Level FlightAware ADS-B
Mon 07:05:43 PM 28.1190 -94.0940 149° Southeast 455 524 37,000  Level FlightAware ADS-B
Mon 07:06:23 PM 28.0580 -94.0520 149° Southeast 455 524 37,000  Level FlightAware ADS-B
Mon 07:07:03 PM 27.9960 -94.0100 149° Southeast 455 524 37,000  Level FlightAware ADS-B
Mon 07:07:53 PM 27.9200 -93.9580 149° Southeast 455 524 37,000  Level FlightAware ADS-B
Mon 07:08:33 PM 27.8580 -93.9160 149° Southeast 455 524 37,000  Level FlightAware ADS-B
Mon 07:09:13 PM 27.7970 -93.8750 149° Southeast 455 524 37,000  Level FlightAware ADS-B
Mon 07:09:53 PM 27.7360 -93.8330 149° Southeast 455 524 37,000  Level FlightAware ADS-B
Mon 07:10:33 PM 27.6740 -93.7910 149° Southeast 455 524 37,000  Level FlightAware ADS-B
Mon 07:11:23 PM 27.5980 -93.7390 149° Southeast 455 524 37,000  Level FlightAware ADS-B
Mon 07:12:03 PM 27.5360 -93.6980 150° Southeast 455 524 37,000  Level FlightAware ADS-B
Mon 07:12:43 PM 27.4750 -93.6560 149° Southeast 455 524 37,000  Level FlightAware ADS-B
Mon 07:13:23 PM 27.4140 -93.6150 149° Southeast 455 524 37,000  Level FlightAware ADS-B
Mon 07:14:03 PM 27.3520 -93.5730 149° Southeast 455 524 37,000 1,667 Level FlightAware ADS-B
Mon 07:14:35 PM 27.2269 -93.2372 149° Southeast 478 550 39,000 1,290 Climbing Houston Center
Mon 07:15:36 PM 27.1244 -93.1406 140° Southeast 480 552 39,000  Level Houston Center
Mon 07:16:38 PM 27.0236 -93.0439 139° Southeast 479 551 39,000 -48 Level Houston Center
Mon 07:17:40 PM 26.9164 -92.9483 142° Southeast 478 550 38,900 -97 Descending Houston Center
Mon 07:19:00 PM 26.7956 -92.8305 149° Southeast  Level FlightAware Approximate
Mon 07:26:00 PM 26.0707 -92.3543 149° Southeast  Level FlightAware Approximate
Mon 07:27:00 PM 25.9669 -92.2868 150° Southeast  Level FlightAware Approximate
Mon 07:28:00 PM 25.8632 -92.2194 150° Southeast  Level FlightAware Approximate
Mon 07:29:00 PM 25.7597 -92.1517 149° Southeast  Level FlightAware Approximate
Mon 07:30:00 PM 25.6562 -92.0839 149° Southeast  Level FlightAware Approximate
Mon 07:31:00 PM 25.5527 -92.0163 149° Southeast  Level FlightAware Approximate
Mon 07:32:00 PM 25.4491 -91.9488 150° Southeast  Level FlightAware Approximate
Mon 07:33:00 PM 25.3456 -91.8814 150° Southeast  Level FlightAware Approximate
Mon 07:34:00 PM 25.2419 -91.8141 150° Southeast  Level FlightAware Approximate
Mon 07:35:00 PM 25.1383 -91.7469 150° Southeast  Level FlightAware Approximate
Mon 07:36:00 PM 25.0346 -91.6798 150° Southeast  Level FlightAware Approximate
Mon 07:37:00 PM 24.9309 -91.6129 150° Southeast  Level FlightAware Approximate
Mon 07:38:00 PM 24.8272 -91.5460 149° Southeast  Level FlightAware Approximate
Mon 07:39:00 PM 24.7238 -91.4787 149° Southeast  Level FlightAware Approximate
Mon 07:40:00 PM 24.6204 -91.4114 149° Southeast  Level FlightAware Approximate
Mon 07:41:00 PM 24.5169 -91.3443 149° Southeast  Level FlightAware Approximate
Mon 07:42:00 PM 24.4085 -91.2875 155° Southeast  Level FlightAware Approximate
Mon 07:43:00 PM 24.2992 -91.2329 156° South  Level FlightAware Approximate
Mon 07:44:00 PM 24.1892 -91.1799 157° South  Level FlightAware Approximate
Mon 07:45:00 PM 24.0789 -91.1276 157° South  Level FlightAware Approximate
Mon 07:46:00 PM 23.9686 -91.0754 157° South  Level FlightAware Approximate
Mon 07:47:00 PM 23.8588 -91.0220 156° South  Level FlightAware Approximate
Mon 07:48:00 PM 23.7491 -90.9684 156° South  Level FlightAware Approximate
Mon 07:49:00 PM 23.6394 -90.9149 156° South  Level FlightAware Approximate
Mon 07:50:00 PM 23.5297 -90.8615 156° South  Level FlightAware Approximate
Mon 07:51:00 PM 23.4200 -90.8082 156° South  Level FlightAware Approximate
Mon 07:52:00 PM 23.3102 -90.7550 156° South  Level FlightAware Approximate
Mon 07:53:00 PM 23.1996 -90.7039 157° South  Level FlightAware Approximate
Mon 07:54:00 PM 23.0889 -90.6531 157° South  Level FlightAware Approximate
Mon 07:55:00 PM 22.9782 -90.6024 157° South  Level FlightAware Approximate
Mon 07:56:00 PM 22.8677 -90.5512 156° South  Level FlightAware Approximate
Mon 07:57:00 PM 22.7578 -90.4985 156° South  Level FlightAware Approximate
Mon 07:58:00 PM 22.6467 -90.4454 156° South  Level FlightAware Approximate
Mon 07:59:00 PM 22.5357 -90.3924 156° South  Level FlightAware Approximate
Mon 08:00:00 PM 22.4246 -90.3396 156° South  Level FlightAware Approximate
Mon 08:01:00 PM 22.3135 -90.2868 156° South  Level FlightAware Approximate
Mon 08:02:00 PM 22.2024 -90.2341 156° South  Level FlightAware Approximate
Mon 08:03:00 PM 22.0913 -90.1815 156° South  Level FlightAware Approximate
Mon 08:04:00 PM 21.9802 -90.1290 156° South  Level FlightAware Approximate
Mon 08:05:00 PM 21.8689 -90.0769 158° South  Level FlightAware Approximate
Mon 08:06:00 PM 21.7567 -90.0270 158° South  Level FlightAware Approximate
Mon 08:07:00 PM 21.6446 -89.9772 158° South  Level FlightAware Approximate
Mon 08:08:00 PM 21.5325 -89.9271 157° South  Level FlightAware Approximate
Mon 08:09:00 PM 21.4206 -89.8767 157° South  Level FlightAware Approximate
Mon 08:10:00 PM 21.3087 -89.8263 157° South  Level FlightAware Approximate
Mon 08:11:00 PM 21.1972 -89.7749 156° South  Level FlightAware Approximate
Mon 08:12:00 PM 21.0862 -89.7223 156° South  Level FlightAware Approximate
Mon 08:13:00 PM 20.9752 -89.6698 156° South  Level FlightAware Approximate
Mon 08:14:00 PM 20.8580 -89.6440 176° South  Level FlightAware Approximate
Mon 08:15:00 PM 20.7370 -89.6345 176° South  Level FlightAware Approximate
Mon 08:16:00 PM 20.6160 -89.6249 176° South  Level FlightAware Approximate
Mon 08:17:00 PM 20.4949 -89.6153 176° South  Level FlightAware Approximate
Mon 08:18:00 PM 20.3739 -89.6058 176° South  Level FlightAware Approximate
Mon 08:19:00 PM 20.2529 -89.5963 176° South  Level FlightAware Approximate
Mon 08:20:00 PM 20.1319 -89.5868 176° South  Level FlightAware Approximate
Mon 08:21:00 PM 20.0109 -89.5773 176° South  Level FlightAware Approximate
Mon 08:22:00 PM 19.8899 -89.5678 176° South  Level FlightAware Approximate
Mon 08:23:00 PM 19.7689 -89.5584 176° South  Level FlightAware Approximate
Mon 08:24:00 PM 19.6479 -89.5489 176° South  Level FlightAware Approximate
Mon 08:25:00 PM 19.5269 -89.5395 176° South  Level FlightAware Approximate
Mon 08:26:00 PM 19.4058 -89.5301 176° South  Level FlightAware Approximate
Mon 08:27:00 PM 19.2848 -89.5207 176° South  Level FlightAware Approximate
Mon 08:28:00 PM 19.1637 -89.5134 177° South  Level FlightAware Approximate
Mon 08:29:00 PM 19.0424 -89.5077 177° South  Level FlightAware Approximate
Mon 08:30:00 PM 18.9212 -89.5021 177° South  Level FlightAware Approximate
Mon 08:31:00 PM 18.8000 -89.4964 177° South  Level FlightAware Approximate
Mon 08:32:00 PM 18.6788 -89.4907 177° South  Level FlightAware Approximate
Mon 08:33:00 PM 18.5576 -89.4851 177° South  Level FlightAware Approximate
Mon 08:34:00 PM 18.4363 -89.4795 177° South  Level FlightAware Approximate
Mon 08:35:00 PM 18.3151 -89.4738 177° South  Level FlightAware Approximate
Mon 08:36:00 PM 18.1939 -89.4682 177° South  Level FlightAware Approximate
Mon 08:37:00 PM 18.0727 -89.4626 177° South  Level FlightAware Approximate
Mon 08:38:00 PM 17.9515 -89.4570 177° South  Level FlightAware Approximate
Mon 08:39:00 PM 17.8302 -89.4514 177° South  Level FlightAware Approximate
Mon 08:40:00 PM 17.7094 -89.4399 174° South  Level FlightAware Approximate
Mon 08:41:00 PM 17.5849 -89.4279 175° South  Level FlightAware Approximate
Mon 08:42:00 PM 17.4602 -89.4175 175° South  Level FlightAware Approximate
Mon 08:43:00 PM 17.3355 -89.4071 175° South  Level FlightAware Approximate
Mon 08:44:00 PM 17.2109 -89.3967 175° South  Level FlightAware Approximate
Mon 08:45:00 PM 17.0862 -89.3863 175° South  Level FlightAware Approximate
Mon 08:46:00 PM 16.9614 -89.3774 176° South  Level FlightAware Approximate
Mon 08:47:00 PM 16.8366 -89.3691 176° South  Level FlightAware Approximate
Mon 08:48:00 PM 16.7255 -89.4163 213° Southwest  Level FlightAware Approximate
Mon 08:49:00 PM 16.6182 -89.4832 210° Southwest  Level FlightAware Approximate
Mon 08:50:00 PM 16.5102 -89.5490 210° Southwest  Level FlightAware Approximate
Mon 08:51:00 PM 16.4021 -89.6147 210° Southwest  Level FlightAware Approximate
Mon 08:52:00 PM 16.2931 -89.6785 206° Southwest  Level FlightAware Approximate
Mon 08:53:00 PM 16.1838 -89.7414 211° Southwest  Level FlightAware Approximate
Mon 08:54:00 PM 16.0781 -89.8109 214° Southwest  Level FlightAware Approximate
Mon 08:55:00 PM 15.9737 -89.8825 210° Southwest  Level FlightAware Approximate
Mon 08:56:00 PM 15.8654 -89.9475 210° Southwest  Level FlightAware Approximate
Mon 08:57:00 PM 15.7571 -90.0124 210° Southwest  Level FlightAware Approximate
Mon 08:58:00 PM 15.6460 -90.0722 207° Southwest  Level FlightAware Approximate
Mon 08:59:00 PM 15.5348 -90.1315 207° Southwest  Level FlightAware Approximate
Mon 09:00:00 PM 15.4277 -90.1982 213° Southwest  Level FlightAware Approximate
Mon 09:01:00 PM 15.3225 -90.2684 213° Southwest  Level FlightAware Approximate
Mon 09:02:00 PM 15.2158 -90.3360 211° Southwest  Level FlightAware Approximate
Mon 09:03:00 PM 15.1081 -90.4018 210° Southwest  Level FlightAware Approximate
Mon 09:04:00 PM 14.9998 -90.4667 180° South  Level FlightAware Approximate
Mon 09:05:00 PM 14.8752 -90.4758 186° South  Level FlightAware Approximate

Login

Don't have an account? Register now (free) for customized features, flight alerts, and more!